Airfield :
LOGIN :

Register | Disclaimer

   EN    FR    IT 

 










Legend :    VFR   Marginal VFR   IFR   Intensive IFR   Very Intensive IFR
Visi :
Ceiling :
>= 8 km
>= 3000ft
5 to 8 km
1000 to 3000 ft
1500m to 5 km
500 to 1000 ft
800 to 1500m
200 to 500 ft
< 800m
< 200 ft
Symbols :   Thunderstorms  Fog  Heavy snow  Heavy precipitations  Wind > 20 kt
SIGMETs :     Misc.  Thunderstorms  Icing  Turbulence  Mountain Waves  Volcanic Ashes







- Airport Elevation : 38 ft
- IATA code : TRE
- Download approach charts


EGPU - Tiree

CURRENT METAR :
  • 201250Z 23019KT 9000 SCT004 SCT027 BKN049 10/10 Q1003

EXPIRED METARs :
  • 201220Z 23020KT 9000 BKN004 BKN039 11/10 Q1002
  • 201150Z 19020KT 3700 -RADZ BKN003 BKN009 10/10 Q1001
  • 201120Z 19022KT 3700 -DZ OVC006 10/09 Q1001
  • 201050Z 17020KT 9000 BKN012 10/09 Q1000
  • 201020Z 17020KT 9000 BKN012 10/09 Q1000

TAF AMD TAF EGPU
Valid from the 20 at 12:00 until the 20 at 19:00 UTC


201219Z 2012/2019 19015G25KT 9999 SCT018 BKN030
BECMG 2012/2015 23012KT
TEMPO 2012/2019 2500 RADZ BKN003
No reported NOTAMs for that airfield.
2 SIGMETs reported for the Scottish FIR (EGPX) :
 
Severe mountain waves
EGPX SIGMET 03 VALID 201330/201730 EGRR
EGPX SCOTTISH FIR SEV MTW FCST WI N5730 W00630 - N5930 W00215 - N5500 W00116 - N5500 W00330 - N5730 W00630 FL030/250 STNR WKN=
Severe mountain waves
EGPX SIGMET 02 VALID 200930/201330 EGRR
EGPX SCOTTISH FIR SEV MTW FCST WI N5500 W00530 - N5355 W00530 - N5425 W00810 - N5507 W00713 - N5520 W00655 - N5838 W00648 - N5946 W00244 - N5847 W00016 - N5500 E00006 - N5500 W00530 FL030/250 STNR NC=



MET'MAP, your aeronautical weather chart ! - Copyright ORBIFLY December 2007 - Disclaimer

ORBIFLY MET'MAP TEAM :

Programming & Development : Alexandra Zaïnal
Concept & Development : Baudouin d'Aumeries
Co-Development & Prog : Marc-Olivier Méhu
Technical & hardware support : Manuel Goepfert

Contact : metmap@orbifly.com




SOURCES & CREDITS :

   NOAA